TimePST,TemperatureF,Dew PointF,Humidity,Sea Level PressureIn,VisibilityMPH,Wind Direction,Wind SpeedMPH,Gust SpeedMPH,PrecipitationIn,Events,Conditions,WindDirDegrees,DateUTC
12:53 AM,55.9,41.0,57,29.99,10.0,SSE,5.8,-,N/A,,Overcast,150,2013-02-19 08:53:00
1:16 AM,55.4,39.2,54,29.99,10.0,Calm,Calm,-,N/A,,Overcast,0,2013-02-19 09:16:00
1:53 AM,55.9,41.0,57,29.97,10.0,SE,6.9,-,N/A,,Overcast,130,2013-02-19 09:53:00
2:53 AM,55.0,39.9,57,29.96,10.0,South,6.9,-,N/A,,Mostly Cloudy,170,2013-02-19 10:53:00
3:53 AM,55.0,37.9,53,29.94,10.0,SE,5.8,-,N/A,,Overcast,130,2013-02-19 11:53:00
4:53 AM,55.0,37.9,53,29.94,10.0,SSE,4.6,-,N/A,,Overcast,150,2013-02-19 12:53:00
5:53 AM,55.0,37.9,53,29.95,10.0,ESE,3.5,-,N/A,,Overcast,120,2013-02-19 13:53:00
6:53 AM,55.9,37.9,51,29.95,10.0,Variable,4.6,-,N/A,,Overcast,0,2013-02-19 14:53:00
7:53 AM,55.9,37.0,49,29.94,10.0,SE,4.6,-,N/A,,Overcast,130,2013-02-19 15:53:00
8:53 AM,55.9,37.0,49,29.95,10.0,South,3.5,-,N/A,,Overcast,170,2013-02-19 16:53:00
10:53 AM,57.0,42.1,57,29.93,10.0,SE,8.1,-,N/A,,Overcast,140,2013-02-19 18:53:00
11:23 AM,53.6,46.4,77,29.92,5.0,SSE,9.2,-,0.01,Rain,Rain,150,2013-02-19 19:23:00
11:53 AM,55.0,46.9,74,29.91,10.0,SE,8.1,-,0.01,,Overcast,140,2013-02-19 19:53:00
12:14 PM,55.4,46.4,72,29.90,10.0,SE,6.9,-,N/A,,Overcast,140,2013-02-19 20:14:00
12:32 PM,55.4,46.4,72,29.89,10.0,SSE,6.9,-,0.00,,Overcast,150,2013-02-19 20:32:00
12:53 PM,55.0,46.9,74,29.88,10.0,SSE,4.6,-,0.00,,Overcast,150,2013-02-19 20:53:00
1:13 PM,55.4,46.4,72,29.87,10.0,SE,6.9,-,N/A,,Overcast,140,2013-02-19 21:13:00
1:53 PM,55.9,43.0,62,29.86,10.0,West,5.8,-,N/A,,Overcast,270,2013-02-19 21:53:00
2:53 PM,59.0,42.1,53,29.84,10.0,SSW,9.2,-,N/A,,Overcast,210,2013-02-19 22:53:00
4:53 PM,57.0,39.0,51,29.80,10.0,Variable,5.8,-,N/A,,Mostly Cloudy,0,2013-02-20 00:53:00
5:53 PM,55.0,39.0,55,29.80,10.0,SW,8.1,17.3,N/A,,Overcast,220,2013-02-20 01:53:00
6:53 PM,55.0,39.0,55,29.79,10.0,Variable,4.6,-,N/A,,Overcast,0,2013-02-20 02:53:00
7:53 PM,54.0,43.0,66,29.78,10.0,SW,5.8,-,0.00,,Overcast,220,2013-02-20 03:53:00
8:53 PM,53.1,43.0,69,29.75,10.0,SW,6.9,-,0.00,,Scattered Clouds,220,2013-02-20 04:53:00
9:24 PM,51.8,44.6,76,29.75,2.5,WNW,9.2,-,0.00,Rain,Heavy Rain,300,2013-02-20 05:24:00
9:31 PM,50.0,42.8,76,29.75,3.0,WNW,5.8,-,0.01,Rain,Heavy Rain,290,2013-02-20 05:31:00
9:53 PM,48.9,44.1,83,29.75,10.0,Calm,Calm,-,0.04,Rain,Light Rain,0,2013-02-20 05:53:00
10:27 PM,48.2,42.8,82,29.74,10.0,Calm,Calm,-,0.04,,Overcast,0,2013-02-20 06:27:00
10:53 PM,50.0,44.1,80,29.73,10.0,Calm,Calm,-,0.05,Rain,Light Rain,0,2013-02-20 06:53:00
11:10 PM,50.0,44.6,82,29.72,10.0,South,3.5,-,0.00,,Overcast,170,2013-02-20 07:10:00
11:53 PM,50.0,41.0,71,29.71,10.0,West,5.8,17.3,0.00,,Mostly Cloudy,280,2013-02-20 07:53:00